createdAt,value
2019-01-30T00:00:38.576Z,986.72
2019-01-30T00:01:48.923Z,986.72
2019-01-30T00:02:58.970Z,986.67
2019-01-30T00:04:09.062Z,986.62
2019-01-30T00:05:18.858Z,986.61
2019-01-30T00:06:28.656Z,986.58
2019-01-30T00:07:38.450Z,986.51
2019-01-30T00:08:48.494Z,986.48
2019-01-30T00:09:58.774Z,986.49
2019-01-30T00:11:08.889Z,986.48
2019-01-30T00:12:18.703Z,986.43
2019-01-30T00:13:29.079Z,986.39
2019-01-30T00:14:39.139Z,986.38
2019-01-30T00:15:55.964Z,986.35
2019-01-30T00:17:06.546Z,986.35
2019-01-30T00:18:16.613Z,986.35
2019-01-30T00:19:26.672Z,986.31
2019-01-30T00:20:36.728Z,986.3
2019-01-30T00:21:46.785Z,986.27
2019-01-30T00:22:57.057Z,986.23
2019-01-30T00:24:07.130Z,986.24
2019-01-30T00:25:16.930Z,986.18
2019-01-30T00:26:29.390Z,986.2
2019-01-30T00:27:39.525Z,986.21
2019-01-30T00:28:49.440Z,986.2
2019-01-30T00:30:03.976Z,986.22
2019-01-30T00:31:14.444Z,986.28
2019-01-30T00:32:24.551Z,986.27
2019-01-30T00:33:34.618Z,986.28
2019-01-30T00:34:44.736Z,986.26
2019-01-30T00:35:54.799Z,986.25
2019-01-30T00:37:04.614Z,986.24
2019-01-30T00:38:14.780Z,986.2
2019-01-30T00:39:24.860Z,986.19
2019-01-30T00:40:34.142Z,986.23
2019-01-30T00:41:44.266Z,986.24
2019-01-30T00:42:53.814Z,986.2
2019-01-30T00:44:03.418Z,986.22
2019-01-30T00:45:13.495Z,986.19
2019-01-30T00:46:23.551Z,986.18
2019-01-30T00:47:34.978Z,986.2
2019-01-30T00:48:45.161Z,986.16
2019-01-30T00:49:55.220Z,986.16
2019-01-30T00:51:06.358Z,986.13
2019-01-30T00:52:16.431Z,986.13
2019-01-30T00:53:26.500Z,986.1
2019-01-30T00:54:36.815Z,986.11
2019-01-30T00:55:46.881Z,986.06
2019-01-30T00:56:56.713Z,986.1
2019-01-30T00:58:06.895Z,986.06
2019-01-30T00:59:16.965Z,986.09
2019-01-30T01:00:27.011Z,986.07
2019-01-30T01:01:37.075Z,986.06
2019-01-30T01:02:46.870Z,986.06
2019-01-30T01:03:56.673Z,986
2019-01-30T01:05:06.745Z,986.02
2019-01-30T01:06:16.811Z,986.02
2019-01-30T01:07:26.635Z,986.03
2019-01-30T01:08:36.512Z,986
2019-01-30T01:09:46.369Z,985.97
2019-01-30T01:10:56.596Z,985.94
2019-01-30T01:12:06.930Z,985.95
2019-01-30T01:13:16.706Z,985.96
2019-01-30T01:14:26.773Z,985.94
2019-01-30T01:15:36.581Z,985.94
2019-01-30T01:16:46.597Z,985.91
2019-01-30T01:17:56.653Z,985.9
2019-01-30T01:19:06.784Z,985.84
2019-01-30T01:20:16.853Z,985.84
2019-01-30T01:21:26.901Z,985.81
2019-01-30T01:22:36.974Z,985.76
2019-01-30T01:23:46.768Z,985.73
2019-01-30T01:24:57.074Z,985.7
2019-01-30T01:26:07.202Z,985.7
2019-01-30T01:27:17.302Z,985.7
2019-01-30T01:28:27.092Z,985.72
2019-01-30T01:29:37.220Z,985.71
2019-01-30T01:30:47.085Z,985.67
2019-01-30T01:31:57.150Z,985.68
2019-01-30T01:33:06.951Z,985.62
2019-01-30T01:34:16.744Z,985.62
2019-01-30T01:35:26.785Z,985.62
2019-01-30T01:36:36.942Z,985.54
2019-01-30T01:37:47.029Z,985.55
2019-01-30T01:38:57.307Z,985.5
2019-01-30T01:40:07.379Z,985.48
2019-01-30T01:41:17.450Z,985.44
2019-01-30T01:42:27.509Z,985.42
2019-01-30T01:43:37.559Z,985.43
2019-01-30T01:44:47.631Z,985.38
2019-01-30T01:45:57.722Z,985.31
2019-01-30T01:47:07.933Z,985.3
2019-01-30T01:48:18.206Z,985.33
2019-01-30T01:49:28.284Z,985.28
2019-01-30T01:50:38.348Z,985.29
2019-01-30T01:51:48.426Z,985.27
2019-01-30T01:52:58.641Z,985.23
2019-01-30T01:54:08.539Z,985.27
2019-01-30T01:55:18.651Z,985.23
2019-01-30T01:56:28.735Z,985.27
2019-01-30T01:57:38.885Z,985.24
2019-01-30T01:58:48.964Z,985.24
2019-01-30T01:59:59.055Z,985.19
2019-01-30T02:01:09.663Z,985.18
2019-01-30T02:02:19.497Z,985.17
2019-01-30T02:03:29.560Z,985.1
2019-01-30T02:04:39.627Z,985.08
2019-01-30T02:05:49.746Z,985.07
2019-01-30T02:06:59.797Z,985.07
2019-01-30T02:08:09.811Z,985.03
2019-01-30T02:09:19.700Z,985.05
2019-01-30T02:10:29.781Z,985.04
2019-01-30T02:11:41.044Z,985.01
2019-01-30T02:12:50.921Z,984.98
2019-01-30T02:14:01.113Z,985
2019-01-30T02:15:10.970Z,984.98
2019-01-30T02:16:21.039Z,984.94
2019-01-30T02:17:31.509Z,984.94
2019-01-30T02:18:41.558Z,984.89
2019-01-30T02:19:51.824Z,984.9
2019-01-30T02:21:01.880Z,984.82
2019-01-30T02:22:11.939Z,984.78
2019-01-30T02:23:21.766Z,984.73
2019-01-30T02:24:31.836Z,984.77
2019-01-30T02:25:41.643Z,984.78
2019-01-30T02:26:51.438Z,984.78
2019-01-30T02:28:01.727Z,984.82
2019-01-30T02:29:11.622Z,984.75
2019-01-30T02:30:22.731Z,984.76
2019-01-30T02:31:32.578Z,984.78
2019-01-30T02:32:42.889Z,984.75
2019-01-30T02:33:52.993Z,984.76
2019-01-30T02:35:06.047Z,984.78
2019-01-30T02:36:16.119Z,984.75
2019-01-30T02:37:26.246Z,984.76
2019-01-30T02:38:36.448Z,984.73
2019-01-30T02:39:46.263Z,984.68
2019-01-30T02:40:56.339Z,984.68
2019-01-30T02:42:07.376Z,984.67
2019-01-30T02:43:17.593Z,984.65
2019-01-30T02:44:27.405Z,984.62
2019-01-30T02:45:37.464Z,984.62
2019-01-30T02:46:47.546Z,984.6
2019-01-30T02:47:57.605Z,984.58
2019-01-30T02:49:08.529Z,984.57
2019-01-30T02:50:18.328Z,984.58
2019-01-30T02:51:28.117Z,984.57
2019-01-30T02:52:38.319Z,984.58
2019-01-30T02:53:48.418Z,984.56
2019-01-30T02:54:58.477Z,984.54
2019-01-30T02:56:08.489Z,984.57
2019-01-30T02:57:19.206Z,984.51
2019-01-30T02:58:29.299Z,984.53
2019-01-30T02:59:39.673Z,984.49
2019-01-30T03:00:58.713Z,984.5
2019-01-30T03:02:09.341Z,984.48
2019-01-30T03:34:35.255Z,984.08
2019-01-30T03:35:45.317Z,984.07
2019-01-30T03:36:55.368Z,984.06
2019-01-30T03:38:06.533Z,984.06
2019-01-30T03:39:16.093Z,984.02
2019-01-30T03:40:26.123Z,984.04
2019-01-30T03:41:36.440Z,984.05
2019-01-30T03:42:46.236Z,984.04
2019-01-30T03:43:56.565Z,984.06
2019-01-30T03:45:06.626Z,983.97
2019-01-30T03:46:16.184Z,984.01
2019-01-30T03:47:25.990Z,983.93
2019-01-30T03:48:36.036Z,983.94
2019-01-30T03:49:46.084Z,983.94
2019-01-30T03:50:56.413Z,983.94
2019-01-30T03:52:06.493Z,983.91
2019-01-30T03:53:16.581Z,983.91
2019-01-30T03:54:26.365Z,983.84
2019-01-30T03:55:36.185Z,983.86
2019-01-30T03:56:45.747Z,983.86
2019-01-30T03:57:56.048Z,983.82
2019-01-30T03:59:06.725Z,983.81
2019-01-30T04:00:16.776Z,983.79
2019-01-30T04:01:27.244Z,983.73
2019-01-30T04:02:37.087Z,983.75
2019-01-30T04:03:46.881Z,983.73
2019-01-30T04:04:57.199Z,983.75
2019-01-30T04:06:06.997Z,983.71
2019-01-30T04:07:17.059Z,983.72
2019-01-30T04:08:27.124Z,983.72
2019-01-30T04:09:37.274Z,983.7
2019-01-30T04:10:47.343Z,983.74
2019-01-30T04:11:57.413Z,983.73
2019-01-30T04:13:07.222Z,983.68
2019-01-30T04:14:17.005Z,983.72
2019-01-30T04:15:27.098Z,983.69
2019-01-30T04:16:36.900Z,983.67
2019-01-30T04:17:46.703Z,983.67
2019-01-30T04:18:56.565Z,983.66
2019-01-30T04:20:06.628Z,983.69
2019-01-30T04:21:16.436Z,983.66
2019-01-30T04:22:26.244Z,983.67
2019-01-30T04:23:36.281Z,983.62
2019-01-30T04:24:46.093Z,983.68
2019-01-30T04:25:55.922Z,983.63
2019-01-30T04:27:06.918Z,983.66
2019-01-30T04:28:16.979Z,983.65
2019-01-30T04:29:27.045Z,983.65
2019-01-30T04:30:37.111Z,983.6
2019-01-30T04:31:47.191Z,983.64
2019-01-30T04:32:57.502Z,983.66
2019-01-30T04:34:07.304Z,983.67
2019-01-30T04:35:17.115Z,983.63
2019-01-30T04:36:27.212Z,983.61
2019-01-30T04:37:37.513Z,983.59
2019-01-30T04:38:47.783Z,983.58
2019-01-30T04:39:57.862Z,983.62
2019-01-30T04:41:07.777Z,983.65
2019-01-30T04:42:17.582Z,983.65
2019-01-30T04:43:27.661Z,983.63
2019-01-30T04:44:37.714Z,983.63
2019-01-30T04:45:47.517Z,983.59
2019-01-30T04:46:57.381Z,983.58
2019-01-30T04:48:07.427Z,983.54
2019-01-30T04:49:17.232Z,983.56
2019-01-30T04:50:27.041Z,983.55
2019-01-30T04:51:36.858Z,983.56
2019-01-30T04:52:46.957Z,983.55
2019-01-30T04:53:56.754Z,983.47
2019-01-30T04:55:06.840Z,983.5
2019-01-30T04:56:16.978Z,983.52
2019-01-30T04:57:27.032Z,983.51
2019-01-30T04:58:37.133Z,983.46
2019-01-30T04:59:47.189Z,983.42
2019-01-30T05:00:57.240Z,983.45
2019-01-30T05:02:07.333Z,983.52
2019-01-30T05:03:17.380Z,983.5
2019-01-30T05:04:30.071Z,983.47
2019-01-30T05:05:40.183Z,983.51
2019-01-30T05:06:49.968Z,983.51
2019-01-30T05:08:00.119Z,983.49
2019-01-30T05:09:10.769Z,983.51
2019-01-30T05:10:20.351Z,983.46
2019-01-30T05:11:30.407Z,983.45
2019-01-30T05:12:40.330Z,983.46
2019-01-30T05:13:50.391Z,983.42
2019-01-30T05:15:02.045Z,983.4
2019-01-30T05:16:12.155Z,983.38
2019-01-30T05:17:22.357Z,983.38
2019-01-30T05:18:32.414Z,983.37
2019-01-30T05:19:42.466Z,983.35
2019-01-30T05:20:52.510Z,983.3
2019-01-30T05:22:02.052Z,983.3
2019-01-30T05:23:12.122Z,983.3
2019-01-30T05:24:21.939Z,983.28
2019-01-30T05:25:32.015Z,983.33
2019-01-30T05:26:41.557Z,983.32
2019-01-30T05:27:51.662Z,983.33
2019-01-30T05:29:01.710Z,983.35
2019-01-30T05:30:11.769Z,983.32
2019-01-30T05:31:22.048Z,983.37
2019-01-30T05:32:32.203Z,983.36
2019-01-30T05:33:42.357Z,983.32
2019-01-30T05:34:52.428Z,983.32
2019-01-30T05:36:02.233Z,983.3
2019-01-30T05:37:12.294Z,983.32
2019-01-30T05:38:22.099Z,983.31
2019-01-30T05:39:31.893Z,983.29
2019-01-30T05:40:41.682Z,983.27
2019-01-30T05:41:51.736Z,983.24
2019-01-30T05:43:01.792Z,983.26
2019-01-30T05:44:11.847Z,983.24
2019-01-30T05:45:21.648Z,983.22
2019-01-30T05:46:31.470Z,983.22
2019-01-30T05:47:41.627Z,983.17
2019-01-30T05:48:51.707Z,983.15
2019-01-30T05:50:01.765Z,983.15
2019-01-30T05:51:11.588Z,983.18
2019-01-30T05:52:21.102Z,983.17
2019-01-30T05:53:31.164Z,983.18
2019-01-30T05:54:41.216Z,983.15
2019-01-30T05:55:51.289Z,983.18
2019-01-30T05:57:01.578Z,983.16
2019-01-30T05:58:11.683Z,983.17
2019-01-30T05:59:21.969Z,983.2
2019-01-30T06:00:31.633Z,983.22
2019-01-30T06:01:41.952Z,983.18
2019-01-30T06:02:52.521Z,983.17
2019-01-30T06:04:02.589Z,983.13
2019-01-30T06:05:12.661Z,983.14
2019-01-30T06:06:22.719Z,983.13
2019-01-30T06:07:32.782Z,983.11
2019-01-30T06:08:42.850Z,983.14
2019-01-30T06:09:53.067Z,983.14
2019-01-30T06:11:03.497Z,983.13
2019-01-30T06:12:15.138Z,983.15
2019-01-30T06:13:24.927Z,983.15
2019-01-30T06:14:35.005Z,983.15
2019-01-30T06:15:45.080Z,983.2
2019-01-30T06:16:55.140Z,983.2
2019-01-30T06:18:05.227Z,983.21
2019-01-30T06:19:15.327Z,983.24
2019-01-30T06:20:25.374Z,983.22
2019-01-30T06:21:35.409Z,983.2
2019-01-30T06:22:45.668Z,983.24
2019-01-30T06:23:55.770Z,983.2
2019-01-30T06:25:08.414Z,983.27
2019-01-30T06:26:18.584Z,983.23
2019-01-30T06:27:28.744Z,983.21
2019-01-30T06:28:38.801Z,983.22
2019-01-30T06:29:48.888Z,983.2
2019-01-30T06:30:58.944Z,983.21
2019-01-30T06:32:09.228Z,983.19
2019-01-30T06:33:29.820Z,983.17
2019-01-30T06:34:39.628Z,983.16
2019-01-30T06:35:49.706Z,983.18
2019-01-30T06:37:00.213Z,983.16
2019-01-30T06:38:11.150Z,983.17
2019-01-30T06:39:21.002Z,983.14
2019-01-30T06:40:31.072Z,983.17
2019-01-30T06:41:41.387Z,983.2
2019-01-30T06:42:51.199Z,983.2
2019-01-30T06:44:03.477Z,983.2
2019-01-30T06:45:13.565Z,983.19
2019-01-30T06:46:23.405Z,983.2
2019-01-30T06:47:33.477Z,983.2
2019-01-30T06:48:43.535Z,983.12
2019-01-30T06:49:53.362Z,983.17
2019-01-30T06:51:04.229Z,983.16
2019-01-30T06:52:14.289Z,983.16
2019-01-30T06:53:24.095Z,983.1
2019-01-30T06:54:34.203Z,983.11
2019-01-30T06:55:46.370Z,983.14
2019-01-30T06:56:56.750Z,983.11
2019-01-30T06:58:07.064Z,983.05
2019-01-30T06:59:16.898Z,983.1
2019-01-30T07:00:26.962Z,983
2019-01-30T07:01:37.008Z,983.05
2019-01-30T07:02:46.897Z,983.07
2019-01-30T07:03:56.937Z,983.02
2019-01-30T07:05:06.757Z,983.01
2019-01-30T07:06:16.301Z,983
2019-01-30T07:07:26.400Z,983.02
2019-01-30T07:08:36.462Z,983.04
2019-01-30T07:09:46.270Z,983.04
2019-01-30T07:10:56.060Z,983.04
2019-01-30T07:12:15.367Z,983.02
2019-01-30T07:13:25.413Z,983.07
2019-01-30T07:14:35.234Z,983.06
2019-01-30T07:15:45.299Z,983.06
2019-01-30T07:16:55.344Z,983.09
2019-01-30T07:18:07.656Z,983.15
2019-01-30T07:19:17.455Z,983.14
2019-01-30T07:20:27.009Z,983.14
2019-01-30T07:21:38.793Z,983.15
2019-01-30T07:22:48.745Z,983.19
2019-01-30T07:23:58.821Z,983.2
2019-01-30T07:25:08.884Z,983.14
2019-01-30T07:26:18.704Z,983.17
2019-01-30T07:27:28.754Z,983.17
2019-01-30T07:28:38.807Z,983.13
2019-01-30T07:29:49.145Z,983.09
2019-01-30T07:30:59.212Z,983.08
2019-01-30T07:32:09.571Z,983.06
2019-01-30T07:33:19.451Z,983.1
2019-01-30T07:34:29.513Z,983.1
2019-01-30T07:35:39.566Z,983.08
2019-01-30T07:36:49.401Z,983.11
2019-01-30T07:37:59.430Z,983.09
2019-01-30T07:39:11.192Z,983.06
2019-01-30T07:40:21.292Z,983.09
2019-01-30T07:41:31.344Z,983.08
2019-01-30T07:42:41.398Z,983.11
2019-01-30T07:43:51.455Z,983.08
2019-01-30T07:45:01.510Z,983.09
2019-01-30T07:46:11.670Z,983.07
2019-01-30T07:47:21.822Z,983.11
2019-01-30T07:48:31.938Z,983.13
2019-01-30T07:49:42.116Z,983.15
2019-01-30T07:50:52.230Z,983.14
2019-01-30T07:52:02.046Z,983.14
2019-01-30T07:53:11.997Z,983.15
2019-01-30T07:54:22.068Z,983.17
2019-01-30T07:55:32.235Z,983.12
2019-01-30T07:56:42.299Z,983.14
2019-01-30T07:57:52.351Z,983.16
2019-01-30T07:59:02.374Z,983.11
2019-01-30T08:00:12.597Z,983.05
2019-01-30T08:01:26.099Z,983.06
2019-01-30T08:02:36.152Z,983.03
2019-01-30T08:03:55.860Z,983.01
2019-01-30T08:05:05.938Z,983.03
2019-01-30T08:06:16.034Z,982.97
2019-01-30T08:07:27.817Z,983.01
2019-01-30T08:08:37.637Z,982.99
2019-01-30T08:09:50.160Z,982.99
2019-01-30T08:11:00.382Z,983.02
2019-01-30T08:12:12.781Z,982.98
2019-01-30T08:13:22.876Z,982.95
2019-01-30T08:14:32.727Z,982.99
2019-01-30T08:15:42.804Z,982.99
2019-01-30T08:16:52.939Z,982.98
2019-01-30T08:18:02.579Z,982.98
2019-01-30T08:19:12.671Z,982.93
2019-01-30T08:20:22.945Z,982.92
2019-01-30T08:21:33.072Z,982.91
2019-01-30T08:22:43.208Z,982.89
2019-01-30T08:23:53.874Z,982.96
2019-01-30T08:25:05.031Z,982.93
2019-01-30T08:26:15.915Z,982.93
2019-01-30T08:27:28.584Z,982.95
2019-01-30T08:28:41.516Z,982.94
2019-01-30T08:29:52.240Z,982.87
2019-01-30T08:31:03.149Z,982.91
2019-01-30T08:32:14.105Z,982.92
2019-01-30T08:33:28.266Z,982.91
2019-01-30T08:34:38.073Z,982.87
2019-01-30T08:35:48.126Z,982.89
2019-01-30T08:36:58.187Z,982.95
2019-01-30T08:38:08.823Z,982.93
2019-01-30T08:39:18.875Z,982.99
2019-01-30T08:40:28.963Z,983.01
2019-01-30T08:41:39.115Z,982.99
2019-01-30T08:42:51.885Z,983.07
2019-01-30T08:44:02.480Z,983.02
2019-01-30T08:45:12.308Z,983.04
2019-01-30T08:46:22.364Z,983.1
2019-01-30T08:47:32.479Z,983.11
2019-01-30T08:48:42.540Z,983.12
2019-01-30T08:49:52.810Z,983.02
2019-01-30T08:51:03.154Z,983.01
2019-01-30T08:52:13.275Z,983.05
2019-01-30T08:53:23.343Z,983.05
2019-01-30T08:54:33.162Z,983.03
2019-01-30T08:55:43.215Z,983.07
2019-01-30T08:56:53.410Z,983.15
2019-01-30T08:58:04.963Z,983.13
2019-01-30T08:59:15.039Z,983.15
2019-01-30T09:00:25.101Z,983.12
2019-01-30T09:01:35.004Z,983.11
2019-01-30T09:02:44.813Z,983.12
2019-01-30T09:03:55.121Z,983.13
2019-01-30T09:05:04.959Z,983.14
2019-01-30T09:06:14.826Z,983.14
2019-01-30T09:07:24.630Z,983.11
2019-01-30T09:08:44.934Z,983.1
2019-01-30T09:09:55.394Z,983.19
2019-01-30T09:11:08.867Z,983.11
2019-01-30T09:12:19.019Z,983.12
2019-01-30T09:13:28.602Z,983.11
2019-01-30T09:14:38.652Z,983.09
2019-01-30T09:15:48.897Z,983.09
2019-01-30T09:16:59.016Z,983.08
2019-01-30T09:18:13.894Z,983.11
2019-01-30T09:19:23.948Z,983.12
2019-01-30T09:20:33.771Z,983.14
2019-01-30T09:21:43.571Z,983.13
2019-01-30T09:22:53.894Z,983.09
2019-01-30T09:24:06.215Z,983.11
2019-01-30T09:25:16.767Z,983.11
2019-01-30T09:26:26.810Z,983.09
2019-01-30T09:27:36.890Z,983.08
2019-01-30T09:28:46.990Z,983.1
2019-01-30T09:29:57.046Z,983.09
2019-01-30T09:31:08.419Z,983.05
2019-01-30T09:32:18.558Z,983.09
2019-01-30T09:33:28.388Z,983.1
2019-01-30T09:34:38.521Z,983.08
2019-01-30T09:35:48.599Z,983.06
2019-01-30T09:36:58.750Z,983.1
2019-01-30T09:38:10.562Z,983.02
2019-01-30T09:39:20.688Z,983.07
2019-01-30T09:40:30.544Z,983.01
2019-01-30T09:41:40.455Z,983.03
2019-01-30T09:42:50.585Z,983.08
2019-01-30T09:44:01.380Z,983.02
2019-01-30T09:45:11.479Z,983
2019-01-30T09:46:21.789Z,982.98
2019-01-30T09:47:31.989Z,982.96
2019-01-30T09:48:42.237Z,982.94
2019-01-30T09:49:52.300Z,982.97
2019-01-30T09:51:02.456Z,982.91
2019-01-30T09:52:12.562Z,982.98
2019-01-30T09:53:32.093Z,982.91
2019-01-30T09:54:42.303Z,982.94
2019-01-30T09:55:52.436Z,982.93
2019-01-30T09:57:02.654Z,982.92
2019-01-30T09:58:12.810Z,982.89
2019-01-30T09:59:24.539Z,982.94
2019-01-30T10:00:34.355Z,982.89
2019-01-30T10:01:44.442Z,982.86
2019-01-30T10:02:55.072Z,982.82
2019-01-30T10:04:05.154Z,982.86
2019-01-30T10:05:14.803Z,982.83
2019-01-30T10:06:24.618Z,982.87
2019-01-30T10:07:34.455Z,982.84
2019-01-30T10:08:45.011Z,982.83
2019-01-30T10:09:55.172Z,982.82
2019-01-30T10:11:04.975Z,982.83
2019-01-30T10:12:15.277Z,982.83
2019-01-30T10:13:25.336Z,982.82
2019-01-30T10:14:35.054Z,982.8
2019-01-30T10:15:44.640Z,982.81
2019-01-30T10:16:54.429Z,982.82
2019-01-30T10:18:04.492Z,982.85
2019-01-30T10:19:14.574Z,982.85
2019-01-30T10:20:24.639Z,982.89
2019-01-30T10:21:34.693Z,982.85
2019-01-30T10:22:44.762Z,982.86
2019-01-30T10:23:54.870Z,982.83
2019-01-30T10:25:04.960Z,982.84
2019-01-30T10:26:15.082Z,982.83
2019-01-30T10:27:24.812Z,982.82
2019-01-30T10:28:34.903Z,982.8
2019-01-30T10:29:44.982Z,982.87
2019-01-30T10:30:55.053Z,982.86
2019-01-30T10:32:04.822Z,982.85
2019-01-30T10:33:14.933Z,982.84
2019-01-30T10:34:25.234Z,982.76
2019-01-30T10:35:35.330Z,982.78
2019-01-30T10:36:45.414Z,982.75
2019-01-30T10:37:55.533Z,982.77
2019-01-30T10:39:05.663Z,982.74
2019-01-30T10:40:15.750Z,982.76
2019-01-30T10:41:25.819Z,982.78
2019-01-30T10:42:35.916Z,982.74
2019-01-30T10:43:45.769Z,982.76
2019-01-30T10:44:55.167Z,982.77
2019-01-30T10:46:05.269Z,982.76
2019-01-30T10:47:15.515Z,982.72
2019-01-30T10:48:25.618Z,982.69
2019-01-30T10:49:37.090Z,982.67
2019-01-30T10:50:47.170Z,982.68
2019-01-30T10:51:57.230Z,982.69
2019-01-30T10:53:07.307Z,982.64
2019-01-30T10:54:17.438Z,982.63
2019-01-30T10:55:27.574Z,982.59
2019-01-30T10:56:37.364Z,982.57
2019-01-30T10:57:47.454Z,982.6
2019-01-30T10:58:57.536Z,982.58
2019-01-30T11:00:08.143Z,982.56
2019-01-30T11:01:18.809Z,982.51
2019-01-30T11:02:28.890Z,982.49
2019-01-30T11:03:38.950Z,982.58
2019-01-30T11:04:59.849Z,982.56
2019-01-30T11:06:10.071Z,982.55
2019-01-30T11:07:20.138Z,982.53
2019-01-30T11:08:30.217Z,982.57
2019-01-30T11:09:42.123Z,982.53
2019-01-30T11:10:52.192Z,982.48
2019-01-30T11:12:12.840Z,982.47
2019-01-30T11:13:22.923Z,982.54
2019-01-30T11:14:32.977Z,982.56
2019-01-30T11:15:44.031Z,982.54
2019-01-30T11:16:53.838Z,982.54
2019-01-30T11:18:03.890Z,982.53
2019-01-30T11:19:14.049Z,982.53
2019-01-30T11:20:24.118Z,982.54
2019-01-30T11:21:33.918Z,982.55
2019-01-30T11:22:43.967Z,982.53
2019-01-30T11:23:56.566Z,982.49
2019-01-30T11:25:07.576Z,982.5
2019-01-30T11:26:17.651Z,982.47
2019-01-30T11:27:28.476Z,982.49
2019-01-30T11:28:38.534Z,982.48
2019-01-30T11:29:48.430Z,982.51
2019-01-30T11:30:58.567Z,982.52
2019-01-30T11:32:08.628Z,982.53
2019-01-30T11:33:18.701Z,982.52
2019-01-30T11:34:28.784Z,982.52
2019-01-30T11:35:38.856Z,982.51
2019-01-30T11:36:48.397Z,982.48
2019-01-30T11:38:00.722Z,982.47
2019-01-30T11:39:11.961Z,982.46
2019-01-30T11:40:22.273Z,982.43
2019-01-30T11:41:32.580Z,982.46
2019-01-30T11:42:42.433Z,982.45
2019-01-30T11:43:52.502Z,982.42
2019-01-30T11:45:02.391Z,982.42
2019-01-30T11:46:12.664Z,982.43
2019-01-30T11:47:22.827Z,982.45
2019-01-30T11:48:32.811Z,982.35
2019-01-30T11:49:42.165Z,982.4
2019-01-30T11:50:52.258Z,982.38
2019-01-30T11:52:03.011Z,982.38
2019-01-30T11:53:13.089Z,982.38
2019-01-30T11:54:23.212Z,982.4
2019-01-30T11:55:43.905Z,982.36
2019-01-30T11:56:53.961Z,982.41
2019-01-30T11:58:05.077Z,982.36
2019-01-30T11:59:15.484Z,982.35
2019-01-30T12:00:25.541Z,982.41
2019-01-30T12:01:35.091Z,982.35
2019-01-30T12:02:47.793Z,982.34
2019-01-30T12:03:58.211Z,982.38
2019-01-30T12:05:18.522Z,982.36
2019-01-30T12:06:28.552Z,982.34
2019-01-30T12:07:38.611Z,982.34
2019-01-30T12:08:48.671Z,982.35
2019-01-30T12:09:58.740Z,982.32
2019-01-30T12:11:09.237Z,982.34
2019-01-30T12:12:19.055Z,982.35
2019-01-30T12:13:28.863Z,982.34
2019-01-30T12:14:38.732Z,982.4
2019-01-30T12:15:48.796Z,982.35
2019-01-30T12:16:58.980Z,982.34
2019-01-30T12:18:11.115Z,982.38
2019-01-30T12:19:20.944Z,982.32
2019-01-30T12:20:31.018Z,982.33
2019-01-30T12:21:40.609Z,982.38
2019-01-30T12:22:50.677Z,982.39
2019-01-30T12:24:01.011Z,982.4
2019-01-30T12:25:11.084Z,982.34
2019-01-30T12:26:21.148Z,982.39
2019-01-30T12:27:31.227Z,982.32
2019-01-30T12:28:41.294Z,982.39
2019-01-30T12:29:51.369Z,982.34
2019-01-30T12:31:01.205Z,982.3
2019-01-30T12:32:11.282Z,982.34
2019-01-30T12:33:21.373Z,982.39
2019-01-30T12:34:31.461Z,982.35
2019-01-30T12:35:41.523Z,982.39
2019-01-30T12:36:51.852Z,982.34
2019-01-30T12:38:03.629Z,982.33
2019-01-30T12:39:13.696Z,982.31
2019-01-30T12:40:23.483Z,982.37
2019-01-30T12:41:35.719Z,982.35
2019-01-30T12:42:45.960Z,982.37
2019-01-30T12:43:56.050Z,982.37
2019-01-30T12:45:06.240Z,982.35
2019-01-30T12:46:16.324Z,982.3
2019-01-30T12:47:27.491Z,982.33
2019-01-30T12:48:37.325Z,982.3
2019-01-30T12:49:49.537Z,982.27
2019-01-30T12:50:59.637Z,982.24
2019-01-30T12:52:10.300Z,982.31
2019-01-30T12:53:20.383Z,982.27
2019-01-30T12:54:30.435Z,982.32
2019-01-30T12:55:40.500Z,982.24
2019-01-30T12:56:50.437Z,982.26
2019-01-30T12:58:01.369Z,982.27
2019-01-30T12:59:11.502Z,982.25
2019-01-30T13:00:21.813Z,982.23
2019-01-30T13:01:32.342Z,982.26
2019-01-30T13:02:42.182Z,982.19
2019-01-30T13:03:51.997Z,982.25
2019-01-30T13:05:02.613Z,982.25
2019-01-30T13:06:12.721Z,982.3
2019-01-30T13:07:22.823Z,982.36
2019-01-30T13:08:32.893Z,982.32
2019-01-30T13:09:43.075Z,982.32
2019-01-30T13:10:53.232Z,982.33
2019-01-30T13:12:03.303Z,982.31
2019-01-30T13:13:13.407Z,982.29
2019-01-30T13:14:23.492Z,982.34
2019-01-30T13:15:33.586Z,982.31
2019-01-30T13:16:44.086Z,982.3
2019-01-30T13:17:54.158Z,982.35
2019-01-30T13:19:17.930Z,982.37
2019-01-30T13:20:28.032Z,982.29
2019-01-30T13:21:38.166Z,982.33
2019-01-30T13:22:48.089Z,982.4
2019-01-30T13:23:57.887Z,982.43
2019-01-30T13:25:09.900Z,982.37
2019-01-30T13:26:19.985Z,982.43
2019-01-30T13:27:30.170Z,982.44
2019-01-30T13:28:40.231Z,982.49
2019-01-30T13:29:50.316Z,982.43
2019-01-30T13:31:00.406Z,982.42
2019-01-30T13:32:10.744Z,982.44
2019-01-30T13:33:20.927Z,982.43
2019-01-30T13:34:30.737Z,982.41
2019-01-30T13:35:49.509Z,982.41
2019-01-30T13:36:59.569Z,982.47
2019-01-30T13:38:09.827Z,982.43
2019-01-30T13:39:19.911Z,982.41
2019-01-30T13:40:29.958Z,982.46
2019-01-30T13:41:40.033Z,982.44
2019-01-30T13:42:50.156Z,982.43
2019-01-30T13:44:00.419Z,982.46
2019-01-30T13:45:10.484Z,982.46
2019-01-30T13:46:20.560Z,982.44
2019-01-30T13:47:32.637Z,982.44
2019-01-30T13:48:42.821Z,982.43
2019-01-30T13:49:53.011Z,982.43
2019-01-30T13:51:02.867Z,982.45
2019-01-30T13:52:14.443Z,982.46
2019-01-30T13:53:24.549Z,982.44
2019-01-30T13:54:34.676Z,982.47
2019-01-30T13:55:44.751Z,982.42
2019-01-30T13:56:54.663Z,982.44
2019-01-30T13:58:05.523Z,982.4
2019-01-30T13:59:15.665Z,982.38
2019-01-30T14:00:25.745Z,982.39
2019-01-30T14:01:36.203Z,982.39
2019-01-30T14:02:46.317Z,982.39
2019-01-30T14:03:56.177Z,982.4
2019-01-30T14:05:05.788Z,982.43
2019-01-30T14:06:15.621Z,982.37
2019-01-30T14:07:26.055Z,982.41
2019-01-30T14:08:35.867Z,982.45
2019-01-30T14:09:46.057Z,982.41
2019-01-30T14:10:56.507Z,982.41
2019-01-30T14:12:06.998Z,982.39
2019-01-30T14:13:17.134Z,982.42
2019-01-30T14:14:27.261Z,982.45
2019-01-30T14:15:37.471Z,982.51
2019-01-30T14:16:47.772Z,982.47
2019-01-30T14:17:57.647Z,982.5
2019-01-30T14:19:07.787Z,982.5
2019-01-30T14:20:18.015Z,982.58
2019-01-30T14:21:28.202Z,982.56
2019-01-30T14:22:38.276Z,982.52
2019-01-30T14:23:48.314Z,982.48
2019-01-30T14:24:58.188Z,982.5
2019-01-30T14:26:08.400Z,982.53
2019-01-30T14:27:18.320Z,982.51
2019-01-30T14:28:28.485Z,982.48
2019-01-30T14:29:38.196Z,982.47
2019-01-30T14:30:58.582Z,982.46
2019-01-30T14:32:10.107Z,982.51
2019-01-30T14:33:22.835Z,982.52
2019-01-30T14:34:33.236Z,982.47
2019-01-30T14:35:43.369Z,982.49
2019-01-30T14:36:53.013Z,982.47
2019-01-30T14:38:05.480Z,982.52
2019-01-30T14:39:15.638Z,982.52
2019-01-30T14:40:25.483Z,982.53
2019-01-30T14:41:35.447Z,982.48
2019-01-30T14:42:45.876Z,982.5
2019-01-30T14:43:55.857Z,982.49
2019-01-30T14:45:05.700Z,982.48
2019-01-30T14:46:15.989Z,982.45
2019-01-30T14:47:26.384Z,982.49
2019-01-30T14:48:36.627Z,982.47
2019-01-30T14:49:46.784Z,982.56
2019-01-30T14:50:56.925Z,982.58
2019-01-30T14:52:07.135Z,982.56
2019-01-30T14:53:19.455Z,982.57
2019-01-30T14:54:29.589Z,982.6
2019-01-30T14:55:39.789Z,982.59
2019-01-30T14:56:49.716Z,982.61
2019-01-30T14:57:59.814Z,982.56
2019-01-30T14:59:10.140Z,982.59
2019-01-30T15:00:20.439Z,982.58
2019-01-30T15:01:30.547Z,982.61
2019-01-30T15:02:40.760Z,982.6
2019-01-30T15:03:50.986Z,982.55
2019-01-30T15:05:01.139Z,982.61
2019-01-30T15:06:22.375Z,982.58
2019-01-30T15:07:32.626Z,982.62
2019-01-30T15:08:42.709Z,982.6
2019-01-30T15:09:52.900Z,982.6
2019-01-30T15:11:06.218Z,982.61
2019-01-30T15:12:16.424Z,982.61
2019-01-30T15:13:26.361Z,982.62